Time;durP1;ratioP1;P1;durP2;ratioP2;P2;SDS_P1;SDS_P2;PMS_P1;PMS_P2;Temp;Humidity;BMP_temperature;BMP_pressure;BME280_temperature;BME280_humidity;BME280_pressure;Samples;Min_cycle;Max_cycle;Signal;HPM_P1;HPM_P2
2021/10/15 00:01:12;;;;;;;4.40;3.93;;;11.50;1.00;;;;;;5072918;28;20263;-75
2021/10/15 00:03:39;;;;;;;6.20;4.40;;;11.50;1.00;;;;;;5071918;28;20287;-75
2021/10/15 00:06:06;;;;;;;5.63;3.77;;;11.50;1.00;;;;;;5072693;28;20264;-75
2021/10/15 00:08:33;;;;;;;8.53;4.10;;;11.50;1.00;;;;;;5071884;28;20248;-76
2021/10/15 00:11:00;;;;;;;6.17;4.40;;;11.50;1.00;;;;;;5072512;28;20815;-75
2021/10/15 00:13:27;;;;;;;9.93;6.23;;;11.50;1.00;;;;;;5072778;28;20248;-76
2021/10/15 00:15:55;;;;;;;4.70;4.20;;;11.50;1.00;;;;;;5072904;28;20218;-76
2021/10/15 00:18:23;;;;;;;8.37;4.87;;;11.50;1.00;;;;;;5072185;28;20210;-72
2021/10/15 00:20:50;;;;;;;5.07;4.43;;;11.50;1.00;;;;;;5072119;28;20206;-76
2021/10/15 00:23:17;;;;;;;6.30;4.03;;;11.50;1.00;;;;;;5071807;28;20287;-74
2021/10/15 00:25:44;;;;;;;5.23;4.73;;;11.40;1.00;;;;;;5072094;28;20255;-75
2021/10/15 00:28:12;;;;;;;5.53;3.87;;;11.50;1.00;;;;;;5072250;28;20206;-75
2021/10/15 00:30:39;;;;;;;5.40;4.90;;;11.40;1.00;;;;;;5071348;28;20680;-76
2021/10/15 00:33:06;;;;;;;5.90;4.30;;;11.40;1.00;;;;;;5071974;28;20206;-74
2021/10/15 00:35:34;;;;;;;4.87;3.93;;;11.20;1.00;;;;;;5071582;28;20631;-75
2021/10/15 00:38:01;;;;;;;5.23;4.73;;;11.10;1.00;;;;;;5071476;28;20218;-74
2021/10/15 00:40:28;;;;;;;6.47;5.00;;;11.10;1.00;;;;;;5071969;28;20210;-75
2021/10/15 00:42:55;;;;;;;8.77;4.93;;;11.10;1.00;;;;;;5070894;28;20225;-76
2021/10/15 00:45:22;;;;;;;5.87;4.17;;;11.10;1.00;;;;;;5071863;28;20206;-75
2021/10/15 00:47:49;;;;;;;4.60;4.03;;;11.10;1.00;;;;;;5071329;28;20210;-75
2021/10/15 00:50:16;;;;;;;7.60;5.07;;;11.00;1.00;;;;;;5071604;28;20202;-75
2021/10/15 00:52:45;;;;;;;6.20;5.07;;;11.00;1.00;;;;;;5071351;28;20241;-76
2021/10/15 00:55:12;;;;;;;6.97;4.20;;;11.00;1.00;;;;;;5071569;28;20206;-76
2021/10/15 00:57:39;;;;;;;5.60;3.73;;;11.00;1.00;;;;;;5071503;28;20209;-75
2021/10/15 01:00:08;;;;;;;6.07;4.40;;;10.90;1.00;;;;;;5071259;28;20232;-75
2021/10/15 01:02:35;;;;;;;5.00;4.43;;;10.80;1.00;;;;;;5071381;28;20280;-75
2021/10/15 01:05:02;;;;;;;4.60;4.13;;;10.80;1.00;;;;;;5071207;28;20210;-76
2021/10/15 01:07:30;;;;;;;5.70;4.80;;;10.80;1.00;;;;;;5070481;28;20206;-71
2021/10/15 01:09:59;;;;;;;5.57;4.07;;;10.70;1.00;;;;;;5072089;28;20292;-76
2021/10/15 01:12:26;;;;;;;5.37;4.53;;;10.70;1.00;;;;;;5071411;28;20267;-76
2021/10/15 01:14:53;;;;;;;5.63;5.13;;;10.80;1.00;;;;;;5070929;28;20202;-77
2021/10/15 01:17:20;;;;;;;8.60;5.17;;;10.80;1.00;;;;;;5070679;28;20223;-75
2021/10/15 01:19:53;;;;;;;8.30;5.67;;;10.70;1.00;;;;;;5070847;28;20236;-76
2021/10/15 01:22:20;;;;;;;5.17;4.67;;;10.70;1.00;;;;;;5071026;28;20244;-75
2021/10/15 01:24:47;;;;;;;9.97;5.63;;;10.70;1.00;;;;;;5070719;28;20264;-75
2021/10/15 01:27:14;;;;;;;5.30;4.37;;;10.60;1.00;;;;;;5071023;28;20225;-75
2021/10/15 01:29:41;;;;;;;6.20;4.47;;;10.60;1.00;;;;;;5070219;28;20266;-75
2021/10/15 01:32:09;;;;;;;6.80;5.40;;;10.60;1.00;;;;;;5070964;28;20331;-76
2021/10/15 01:34:37;;;;;;;13.60;5.83;;;10.40;1.00;;;;;;5070304;28;20206;-74
2021/10/15 01:37:05;;;;;;;5.90;4.83;;;10.30;1.00;;;;;;5070789;28;20681;-76
2021/10/15 01:39:33;;;;;;;8.40;5.23;;;10.20;1.00;;;;;;5070499;28;20256;-76
2021/10/15 01:42:00;;;;;;;5.87;5.23;;;10.20;1.00;;;;;;5070759;28;20287;-75
2021/10/15 01:44:27;;;;;;;5.13;4.63;;;10.10;1.00;;;;;;5070908;28;20206;-76
2021/10/15 01:46:54;;;;;;;6.50;5.57;;;10.00;1.00;;;;;;5071239;28;20206;-76
2021/10/15 01:49:21;;;;;;;5.47;4.93;;;10.00;1.00;;;;;;5070588;28;20557;-77
2021/10/15 01:51:48;;;;;;;15.90;8.30;;;10.00;1.00;;;;;;5069934;28;20202;-76
2021/10/15 01:54:16;;;;;;;5.97;5.30;;;10.00;1.00;;;;;;5070612;28;20214;-76
2021/10/15 01:56:43;;;;;;;5.80;4.80;;;10.00;1.00;;;;;;5070091;28;20240;-76
2021/10/15 01:59:10;;;;;;;6.80;5.70;;;10.00;1.00;;;;;;5070497;28;20214;-74
2021/10/15 02:01:37;;;;;;;5.60;5.00;;;9.90;1.00;;;;;;5070176;28;20747;-75
2021/10/15 02:04:04;;;;;;;5.10;4.60;;;10.00;1.00;;;;;;5070237;28;20226;-74
2021/10/15 02:06:31;;;;;;;6.50;5.73;;;9.90;1.00;;;;;;5070342;28;20343;-76
2021/10/15 02:08:58;;;;;;;6.83;4.90;;;9.90;1.00;;;;;;5070680;28;20206;-77
2021/10/15 02:11:27;;;;;;;5.77;5.20;;;9.80;1.00;;;;;;5070725;28;20206;-75
2021/10/15 02:13:54;;;;;;;7.17;5.10;;;9.80;1.00;;;;;;5070552;28;20238;-76
2021/10/15 02:16:21;;;;;;;9.40;5.30;;;9.90;1.00;;;;;;5070602;28;20271;-75
2021/10/15 02:18:48;;;;;;;7.90;4.97;;;9.90;1.00;;;;;;5069456;28;20211;-76
2021/10/15 02:21:15;;;;;;;5.33;4.40;;;9.90;1.00;;;;;;5073985;28;20198;-75
2021/10/15 02:23:43;;;;;;;5.37;4.87;;;9.80;1.00;;;;;;5074004;28;20226;-75
2021/10/15 02:26:10;;;;;;;4.50;3.93;;;9.70;1.00;;;;;;5074624;28;20206;-76
2021/10/15 02:28:39;;;;;;;4.93;3.97;;;9.70;1.00;;;;;;5074265;28;20274;-76
2021/10/15 02:31:06;;;;;;;6.13;4.63;;;9.60;1.00;;;;;;5074285;28;20205;-76
2021/10/15 02:33:33;;;;;;;5.77;3.90;;;9.50;1.00;;;;;;5073986;28;20206;-73
2021/10/15 02:36:00;;;;;;;4.43;4.00;;;9.30;1.00;;;;;;5073986;28;20210;-75
2021/10/15 02:38:27;;;;;;;6.17;3.93;;;9.10;1.00;;;;;;5074395;28;20206;-76
2021/10/15 02:40:54;;;;;;;5.37;4.20;;;9.20;1.00;;;;;;5074416;28;20567;-75
2021/10/15 02:43:21;;;;;;;4.33;3.77;;;9.30;1.00;;;;;;5074406;28;20234;-75
2021/10/15 02:45:49;;;;;;;4.43;3.83;;;9.30;1.00;;;;;;5074049;28;20256;-76
2021/10/15 02:48:16;;;;;;;4.10;3.73;;;9.20;1.00;;;;;;5059759;28;20241;-76
2021/10/15 02:50:43;;;;;;;4.70;3.50;;;9.10;1.00;;;;;;5073397;28;20206;-75
2021/10/15 02:53:10;;;;;;;5.17;4.30;;;9.10;1.00;;;;;;5073804;28;20206;-76
2021/10/15 02:55:37;;;;;;;6.80;3.03;;;9.10;1.00;;;;;;5073806;28;20237;-76
2021/10/15 02:58:04;;;;;;;7.00;3.97;;;9.10;1.00;;;;;;5074072;28;20210;-77
2021/10/15 03:00:31;;;;;;;7.90;4.47;;;9.10;1.00;;;;;;5073422;28;20264;-74
2021/10/15 03:02:59;;;;;;;7.53;3.83;;;9.20;1.00;;;;;;5073884;28;20229;-75
2021/10/15 03:05:26;;;;;;;6.80;4.77;;;9.10;1.00;;;;;;5073806;28;20670;-76
2021/10/15 03:07:53;;;;;;;5.33;3.40;;;9.00;1.00;;;;;;5073177;28;20206;-75
2021/10/15 03:10:21;;;;;;;4.27;3.63;;;9.00;1.00;;;;;;5073589;28;20206;-76
2021/10/15 03:12:48;;;;;;;5.10;3.53;;;9.10;1.00;;;;;;5073315;28;20206;-75
2021/10/15 03:15:15;;;;;;;6.13;3.47;;;9.10;1.00;;;;;;5073638;28;20252;-74
2021/10/15 03:17:42;;;;;;;4.50;3.53;;;9.00;1.00;;;;;;5072776;28;20630;-75
2021/10/15 03:20:11;;;;;;;3.13;2.80;;;9.00;1.00;;;;;;5073577;28;20206;-74
2021/10/15 03:22:39;;;;;;;4.67;3.80;;;9.00;1.00;;;;;;5072675;28;20206;-74
2021/10/15 03:25:06;;;;;;;3.73;3.43;;;8.90;1.00;;;;;;5073334;28;20677;-75
2021/10/15 03:27:33;;;;;;;3.90;3.60;;;8.90;1.00;;;;;;5072647;28;20278;-74
2021/10/15 03:30:00;;;;;;;4.10;3.67;;;8.90;1.00;;;;;;5073393;28;20206;-74
2021/10/15 03:32:27;;;;;;;4.33;3.93;;;9.00;1.00;;;;;;5073294;28;20209;-74
2021/10/15 03:34:54;;;;;;;3.90;3.50;;;8.90;1.00;;;;;;5073551;28;20283;-73
2021/10/15 03:37:23;;;;;;;4.20;3.67;;;9.00;1.00;;;;;;5072832;28;20563;-70
2021/10/15 03:39:50;;;;;;;4.67;4.03;;;8.90;1.00;;;;;;5073056;28;20294;-74
2021/10/15 03:42:17;;;;;;;4.57;4.17;;;8.90;1.00;;;;;;5073224;28;20214;-75
2021/10/15 03:44:44;;;;;;;7.00;4.27;;;8.70;1.00;;;;;;5072285;28;20230;-74
2021/10/15 03:47:11;;;;;;;3.87;3.43;;;8.50;1.00;;;;;;5072937;28;20206;-75
2021/10/15 03:49:38;;;;;;;7.43;4.07;;;8.50;1.00;;;;;;5072243;28;20210;-75
2021/10/15 03:52:06;;;;;;;5.97;3.60;;;8.50;1.00;;;;;;5072653;28;20252;-74
2021/10/15 03:54:35;;;;;;;5.97;4.00;;;8.50;1.00;;;;;;5072567;28;20206;-74
2021/10/15 03:57:02;;;;;;;6.17;4.37;;;8.40;1.00;;;;;;5072774;28;20293;-74
2021/10/15 03:59:29;;;;;;;8.43;4.23;;;8.30;1.00;;;;;;5072715;28;20202;-69
2021/10/15 04:01:56;;;;;;;7.97;4.07;;;8.30;1.00;;;;;;5072612;28;20210;-75
2021/10/15 04:04:23;;;;;;;6.00;4.70;;;8.40;1.00;;;;;;5072827;28;20230;-75
2021/10/15 04:06:50;;;;;;;4.57;3.43;;;8.40;1.00;;;;;;5072219;28;20271;-74
2021/10/15 04:09:17;;;;;;;5.23;4.17;;;8.40;1.00;;;;;;5072867;28;20198;-74
2021/10/15 04:11:45;;;;;;;7.43;5.40;;;8.40;1.00;;;;;;5072440;28;20214;-75
2021/10/15 04:14:12;;;;;;;4.13;3.43;;;8.50;1.00;;;;;;5072122;28;20206;-74
2021/10/15 04:16:39;;;;;;;6.23;3.80;;;8.50;1.00;;;;;;5071857;28;20237;-75
2021/10/15 04:19:06;;;;;;;5.70;3.90;;;8.60;1.00;;;;;;5072090;28;20624;-76
2021/10/15 04:21:33;;;;;;;7.93;3.70;;;8.60;1.00;;;;;;5072273;28;20206;-75
2021/10/15 04:24:00;;;;;;;6.40;3.50;;;8.60;1.00;;;;;;5072086;28;20648;-74
2021/10/15 04:26:27;;;;;;;5.53;3.27;;;8.50;1.00;;;;;;5072566;28;20678;-76
2021/10/15 04:28:56;;;;;;;8.50;3.87;;;8.50;1.00;;;;;;5071959;28;20260;-75
2021/10/15 04:31:23;;;;;;;5.57;3.97;;;8.40;1.00;;;;;;5072377;28;20198;-75
2021/10/15 04:33:50;;;;;;;8.70;4.37;;;8.40;1.00;;;;;;5071726;28;20214;-73
2021/10/15 04:36:17;;;;;;;11.53;4.53;;;8.30;1.00;;;;;;5071680;28;20669;-75
2021/10/15 04:38:44;;;;;;;4.97;4.47;;;8.50;1.00;;;;;;5071340;28;20678;-76
2021/10/15 04:41:11;;;;;;;6.53;4.53;;;8.50;1.00;;;;;;5071789;28;20673;-72
2021/10/15 04:43:38;;;;;;;6.70;4.03;;;8.50;1.00;;;;;;5070592;28;20225;-75
2021/10/15 04:46:06;;;;;;;3.33;3.03;;;8.60;1.00;;;;;;5071590;28;20621;-76
2021/10/15 04:48:33;;;;;;;5.57;3.87;;;8.60;1.00;;;;;;5071746;28;20201;-76
2021/10/15 04:51:00;;;;;;;7.70;3.97;;;8.50;1.00;;;;;;5071656;28;20558;-77
2021/10/15 04:53:27;;;;;;;3.63;3.33;;;8.50;1.00;;;;;;5072296;28;20218;-74
2021/10/15 04:55:54;;;;;;;5.80;4.60;;;8.50;1.00;;;;;;5070678;28;20214;-75
2021/10/15 04:58:21;;;;;;;5.20;4.00;;;8.50;1.00;;;;;;5071031;28;20202;-75
2021/10/15 05:00:48;;;;;;;5.83;4.33;;;8.40;1.00;;;;;;5071593;28;20202;-75
2021/10/15 05:03:16;;;;;;;4.17;3.63;;;8.20;1.00;;;;;;5070545;28;20214;-75
2021/10/15 05:05:44;;;;;;;6.47;3.60;;;8.10;1.00;;;;;;5071474;28;20210;-75
2021/10/15 05:08:13;;;;;;;4.93;3.80;;;8.20;1.00;;;;;;5071190;28;20673;-75
2021/10/15 05:10:42;;;;;;;4.97;4.00;;;8.20;1.00;;;;;;5070941;28;20233;-75
2021/10/15 05:13:13;;;;;;;6.33;4.50;;;8.20;1.00;;;;;;5071488;28;20202;-74
2021/10/15 05:15:42;;;;;;;7.47;3.47;;;8.30;1.00;;;;;;5070905;28;20666;-75
2021/10/15 05:18:12;;;;;;;7.37;4.10;;;8.10;1.00;;;;;;5071602;28;20565;-74
2021/10/15 05:20:41;;;;;;;5.70;4.43;;;8.00;1.00;;;;;;5071067;28;20312;-74
2021/10/15 05:23:09;;;;;;;6.20;3.73;;;8.00;1.00;;;;;;5070955;28;20638;-76
2021/10/15 05:25:36;;;;;;;5.67;3.53;;;8.20;1.00;;;;;;5070560;28;20259;-75
2021/10/15 05:28:04;;;;;;;5.07;3.77;;;8.40;1.00;;;;;;5071259;28;20263;-73
2021/10/15 05:30:31;;;;;;;6.63;4.73;;;8.50;1.00;;;;;;5070804;28;20210;-71
2021/10/15 05:32:59;;;;;;;5.13;3.87;;;8.50;1.00;;;;;;5071002;28;20252;-74
2021/10/15 05:35:26;;;;;;;9.47;4.30;;;8.50;1.00;;;;;;5070634;28;20214;-74
2021/10/15 05:37:55;;;;;;;5.53;4.13;;;8.50;1.00;;;;;;5070149;28;20213;-75
2021/10/15 05:40:22;;;;;;;4.77;3.87;;;8.50;1.00;;;;;;5070627;28;20210;-75
2021/10/15 05:42:50;;;;;;;5.00;4.00;;;8.50;1.00;;;;;;5070712;28;20575;-76
2021/10/15 05:45:18;;;;;;;8.13;3.93;;;8.40;1.00;;;;;;5070276;28;20230;-75
2021/10/15 05:47:45;;;;;;;6.70;4.53;;;8.50;1.00;;;;;;5070737;28;20275;-76
2021/10/15 05:50:13;;;;;;;5.17;4.67;;;8.50;1.00;;;;;;5070250;28;20252;-70
2021/10/15 05:52:42;;;;;;;7.73;4.73;;;8.50;1.00;;;;;;5070172;28;20238;-75
2021/10/15 05:55:23;;;;;;;7.90;4.53;;;8.50;1.00;;;;;;5069424;28;20206;-75
2021/10/15 06:00:50;;;;;;;5.47;3.87;;;8.30;1.00;;;;;;5057821;28;20220;-75
2021/10/15 06:03:22;;;;;;;6.53;4.73;;;8.20;1.00;;;;;;5069880;28;20297;-76
2021/10/15 06:14:17;;;;;;;5.33;3.83;;;8.10;1.00;;;;;;5070098;28;20203;-76
2021/10/15 06:16:48;;;;;;;4.30;3.60;;;8.30;1.00;;;;;;5070296;28;20213;-75
2021/10/15 06:19:17;;;;;;;12.07;5.07;;;8.40;1.00;;;;;;5069768;28;20251;-76
2021/10/15 06:21:45;;;;;;;5.70;5.10;;;8.40;1.00;;;;;;5070255;28;20248;-76
2021/10/15 06:24:12;;;;;;;8.33;5.03;;;8.40;1.00;;;;;;5069992;28;20641;-70
2021/10/15 06:26:41;;;;;;;6.87;4.53;;;8.40;1.00;;;;;;5070607;28;20611;-74
2021/10/15 06:29:08;;;;;;;10.23;4.27;;;8.40;1.00;;;;;;5070002;28;20210;-75
2021/10/15 06:31:35;;;;;;;8.67;4.30;;;8.50;1.00;;;;;;5069881;28;20263;-74
2021/10/15 06:34:03;;;;;;;5.50;4.90;;;8.50;1.00;;;;;;5070133;28;20758;-72
2021/10/15 06:36:30;;;;;;;7.77;5.80;;;8.60;1.00;;;;;;5069803;28;20255;-75
2021/10/15 06:38:57;;;;;;;10.77;5.20;;;8.70;1.00;;;;;;5069975;28;20673;-75
2021/10/15 06:41:24;;;;;;;7.77;4.93;;;8.70;1.00;;;;;;5069701;28;20206;-76
2021/10/15 06:43:52;;;;;;;10.13;5.07;;;8.80;1.00;;;;;;5069924;28;20206;-72
2021/10/15 06:46:20;;;;;;;13.57;5.83;;;8.90;1.00;;;;;;5069697;28;20331;-76
2021/10/15 06:48:47;;;;;;;5.53;4.67;;;8.90;1.00;;;;;;5069902;28;20253;-76
2021/10/15 06:51:15;;;;;;;7.47;5.63;;;8.90;1.00;;;;;;5069160;28;20672;-76
2021/10/15 06:53:42;;;;;;;12.17;5.23;;;8.90;1.00;;;;;;5069957;28;20252;-74
2021/10/15 06:56:09;;;;;;;11.60;4.83;;;9.00;1.00;;;;;;5070045;28;20256;-76
2021/10/15 06:58:36;;;;;;;12.40;5.33;;;9.10;1.00;;;;;;5069466;28;20202;-75
2021/10/15 07:01:05;;;;;;;10.27;5.33;;;9.10;1.00;;;;;;5069988;28;20255;-76
2021/10/15 07:03:32;;;;;;;10.30;5.83;;;9.20;1.00;;;;;;5069477;28;21128;-71
2021/10/15 07:06:00;;;;;;;10.10;4.67;;;9.30;1.00;;;;;;5070994;28;20230;-74
2021/10/15 07:08:27;;;;;;;8.77;5.13;;;9.20;1.00;;;;;;5072925;28;20674;-74
2021/10/15 07:10:54;;;;;;;9.50;5.30;;;9.30;1.00;;;;;;5073754;28;20301;-76
2021/10/15 07:13:21;;;;;;;13.33;5.30;;;9.40;1.00;;;;;;5073143;28;20212;-75
2021/10/15 07:15:48;;;;;;;8.20;5.13;;;9.50;1.00;;;;;;5073142;28;20264;-76
2021/10/15 07:18:16;;;;;;;8.17;5.67;;;9.40;1.00;;;;;;5072996;28;20214;-75
2021/10/15 07:20:43;;;;;;;9.03;4.60;;;9.40;1.00;;;;;;5073191;28;20631;-75
2021/10/15 07:23:11;;;;;;;9.63;4.90;;;9.40;1.00;;;;;;5073581;28;20213;-73
2021/10/15 07:25:39;;;;;;;8.37;4.53;;;9.40;1.00;;;;;;5073178;28;20238;-73
2021/10/15 07:28:07;;;;;;;9.90;4.97;;;9.60;1.00;;;;;;5073611;28;20267;-75
2021/10/15 07:30:34;;;;;;;7.27;4.53;;;9.70;1.00;;;;;;5073019;28;20214;-75
2021/10/15 07:33:01;;;;;;;9.73;5.63;;;9.90;1.00;;;;;;5073769;28;20291;-72
2021/10/15 07:35:30;;;;;;;8.53;4.50;;;10.20;1.00;;;;;;5072603;28;20632;-70
2021/10/15 07:37:57;;;;;;;7.80;5.00;;;10.40;1.00;;;;;;5072964;28;20217;-74
2021/10/15 07:40:24;;;;;;;9.80;5.03;;;10.40;1.00;;;;;;5072846;28;20271;-76
2021/10/15 07:42:51;;;;;;;7.80;4.67;;;10.50;1.00;;;;;;5072511;28;20210;-75
2021/10/15 07:45:18;;;;;;;10.33;5.47;;;10.60;1.00;;;;;;5072815;28;20582;-74
2021/10/15 07:47:45;;;;;;;12.57;7.07;;;10.80;1.00;;;;;;5072984;28;20380;-73
2021/10/15 07:50:12;;;;;;;17.90;8.00;;;11.00;1.00;;;;;;5072477;28;20260;-71
2021/10/15 07:52:42;;;;;;;12.50;5.53;;;11.00;1.00;;;;;;5073055;28;20206;-74
2021/10/15 07:55:10;;;;;;;11.13;6.27;;;11.30;1.00;;;;;;5072438;28;20260;-76
2021/10/15 07:57:37;;;;;;;10.37;5.50;;;11.40;1.00;;;;;;5073336;28;20210;-74
2021/10/15 08:00:05;;;;;;;9.90;6.10;;;11.30;1.00;;;;;;5073048;28;20284;-76
2021/10/15 08:02:32;;;;;;;18.30;6.77;;;11.20;1.00;;;;;;5072603;28;20206;-70
2021/10/15 08:04:59;;;;;;;8.40;5.57;;;11.30;1.00;;;;;;5072447;28;20226;-73
2021/10/15 08:07:27;;;;;;;6.80;5.80;;;11.50;1.00;;;;;;5072003;28;20743;-76
2021/10/15 08:09:55;;;;;;;10.47;6.57;;;11.70;1.00;;;;;;5072491;28;20256;-76
2021/10/15 08:12:22;;;;;;;7.43;6.67;;;11.70;1.00;;;;;;5072095;28;20202;-76
2021/10/15 08:14:49;;;;;;;10.93;5.90;;;11.50;1.00;;;;;;5072325;28;20735;-70
2021/10/15 08:17:16;;;;;;;14.77;6.67;;;11.40;1.00;;;;;;5070799;28;20210;-71
2021/10/15 08:19:43;;;;;;;13.83;6.00;;;11.70;1.00;;;;;;5072524;28;20293;-70
2021/10/15 08:22:10;;;;;;;9.87;5.60;;;11.90;1.00;;;;;;5071899;28;20654;-75
2021/10/15 08:24:37;;;;;;;9.60;6.30;;;11.90;1.00;;;;;;5072653;28;20234;-71
2021/10/15 08:27:07;;;;;;;12.80;7.13;;;12.00;1.00;;;;;;5072328;28;20267;-70
2021/10/15 08:29:38;;;;;;;9.73;6.80;;;12.00;1.00;;;;;;5072088;28;20225;-71
2021/10/15 08:32:06;;;;;;;9.93;7.17;;;12.10;1.00;;;;;;5072042;28;20206;-71
2021/10/15 08:34:33;;;;;;;9.63;6.47;;;12.10;1.00;;;;;;5071465;28;20209;-70
2021/10/15 08:37:00;;;;;;;9.17;7.20;;;12.10;1.00;;;;;;5071835;28;20210;-71
2021/10/15 08:39:28;;;;;;;9.50;6.90;;;12.10;1.00;;;;;;5071190;28;20635;-73
2021/10/15 08:41:56;;;;;;;9.87;7.23;;;12.10;1.00;;;;;;5072108;28;20214;-75
2021/10/15 08:44:32;;;;;;;10.03;6.63;;;12.40;1.00;;;;;;5071367;28;20263;-75
2021/10/15 08:46:59;;;;;;;11.27;6.80;;;12.70;1.00;;;;;;5071538;28;20217;-72
2021/10/15 08:49:26;;;;;;;10.43;6.20;;;12.90;1.00;;;;;;5070608;28;20275;-74
2021/10/15 08:51:53;;;;;;;8.97;7.13;;;13.00;1.00;;;;;;5071485;28;20212;-75
2021/10/15 08:54:20;;;;;;;13.83;6.80;;;13.00;1.00;;;;;;5071371;28;20259;-76
2021/10/15 08:56:47;;;;;;;10.53;6.80;;;13.00;1.00;;;;;;5071379;28;20260;-75
2021/10/15 08:59:19;;;;;;;9.07;5.87;;;13.00;1.00;;;;;;5070943;28;20732;-74
2021/10/15 09:01:49;;;;;;;8.73;6.60;;;12.90;1.00;;;;;;5071220;28;20301;-74
2021/10/15 09:04:18;;;;;;;10.47;6.40;;;13.10;1.00;;;;;;5071257;28;20202;-75
2021/10/15 09:06:47;;;;;;;9.47;7.10;;;13.30;1.00;;;;;;5071097;28;20682;-74
2021/10/15 09:09:14;;;;;;;10.40;7.10;;;13.40;1.00;;;;;;5070964;28;20754;-71
2021/10/15 09:11:46;;;;;;;8.95;6.28;;;13.50;1.00;;;;;;5071331;28;20210;-75
2021/10/15 09:14:17;;;;;;;8.55;6.68;;;13.60;1.00;;;;;;5070863;28;20207;-76
2021/10/15 09:17:03;;;;;;;9.35;7.45;;;13.50;1.00;;;;;;5071185;28;20275;-74
2021/10/15 09:19:32;;;;;;;12.88;6.68;;;13.40;1.00;;;;;;5057867;28;20209;-73
2021/10/15 09:22:21;;;;;;;12.43;6.93;;;13.40;1.00;;;;;;5071330;28;20210;-76
2021/10/15 09:24:52;;;;;;;9.73;6.77;;;13.50;1.00;;;;;;5070955;28;20611;-75
2021/10/15 09:27:25;;;;;;;10.52;6.07;;;13.60;1.00;;;;;;5070280;28;20206;-72
2021/10/15 09:29:55;;;;;;;8.27;6.38;;;13.90;1.00;;;;;;5070748;28;20210;-76
2021/10/15 09:32:26;;;;;;;8.10;6.70;;;14.20;1.00;;;;;;5070499;28;20643;-70
2021/10/15 09:34:53;;;;;;;9.73;6.10;;;14.70;1.00;;;;;;5071076;28;20202;-76
2021/10/15 09:37:22;;;;;;;10.52;6.32;;;14.80;1.00;;;;;;5070659;28;20221;-75
2021/10/15 09:39:50;;;;;;;8.95;6.00;;;14.90;1.00;;;;;;5070890;28;20202;-75
2021/10/15 09:42:25;;;;;;;7.57;6.78;;;15.10;1.00;;;;;;5070610;28;20210;-76
2021/10/15 09:44:53;;;;;;;9.35;6.45;;;15.30;1.00;;;;;;5070554;28;20399;-76
2021/10/15 09:47:24;;;;;;;9.77;5.43;;;15.20;1.00;;;;;;5070242;28;20210;-76
2021/10/15 09:50:09;;;;;;;10.80;6.45;;;15.20;1.00;;;;;;5070094;28;20209;-76
2021/10/15 09:52:43;;;;;;;8.07;6.40;;;15.20;1.00;;;;;;5070895;28;20613;-75
2021/10/15 09:55:17;;;;;;;9.32;6.20;;;16.30;1.00;;;;;;5070605;28;20206;-71
2021/10/15 09:57:45;;;;;;;8.20;6.45;;;16.90;99.90;;;;;;5070669;28;20202;-76
2021/10/15 10:00:14;;;;;;;12.25;7.30;;;18.20;99.90;;;;;;5069607;28;20202;-71
2021/10/15 10:02:43;;;;;;;11.38;6.35;;;18.70;99.90;;;;;;5070723;28;20210;-77
2021/10/15 10:05:13;;;;;;;9.98;5.40;;;17.90;99.90;;;;;;5070062;28;20225;-75
2021/10/15 10:07:41;;;;;;;6.82;5.32;;;17.90;99.90;;;;;;5070385;28;20213;-76
2021/10/15 10:10:10;;;;;;;6.88;5.57;;;18.50;99.90;;;;;;5071036;28;20258;-75
2021/10/15 10:12:40;;;;;;;6.68;6.03;;;19.60;99.90;;;;;;5070765;28;20262;-74
2021/10/15 10:15:09;;;;;;;9.52;6.10;;;18.40;99.90;;;;;;5070785;28;20214;-76
2021/10/15 10:17:42;;;;;;;5.93;5.43;;;17.60;99.90;;;;;;5069948;28;20619;-75
2021/10/15 10:20:16;;;;;;;5.10;4.38;;;16.90;99.90;;;;;;5070547;28;20289;-73
2021/10/15 10:22:53;;;;;;;8.63;4.95;;;16.90;99.90;;;;;;5070251;28;20206;-79
2021/10/15 10:25:24;;;;;;;7.03;4.68;;;17.00;99.90;;;;;;5070097;28;20641;-78
2021/10/15 10:27:51;;;;;;;8.98;5.50;;;17.10;99.90;;;;;;5069979;28;20202;-75
2021/10/15 10:30:35;;;;;;;8.93;4.80;;;17.10;99.90;;;;;;5069953;28;20239;-74
2021/10/15 10:33:04;;;;;;;6.90;4.93;;;17.30;99.90;;;;;;5070227;28;20205;-75
2021/10/15 10:35:32;;;;;;;6.80;5.60;;;17.30;99.90;;;;;;5069795;28;20210;-76
2021/10/15 10:38:30;;;;;;;5.30;4.43;;;17.40;99.90;;;;;;5069781;28;20214;-76
2021/10/15 10:41:30;;;;;;;6.47;3.97;;;17.40;99.90;;;;;;5071246;28;20255;-76
2021/10/15 10:44:21;;;;;;;7.82;4.32;;;17.60;99.90;;;;;;5073723;28;20713;-76
2021/10/15 10:47:09;;;;;;;4.97;4.05;;;17.50;99.90;;;;;;5074029;28;20230;-75
2021/10/15 10:49:36;;;;;;;5.40;3.50;;;18.00;99.90;;;;;;5073870;28;20301;-74
2021/10/15 10:52:22;;;;;;;8.10;4.25;;;17.90;99.90;;;;;;5074023;28;20206;-75
2021/10/15 10:54:49;;;;;;;4.60;4.05;;;17.70;99.90;;;;;;5074094;28;20296;-76
2021/10/15 10:57:25;;;;;;;5.05;3.92;;;17.60;99.90;;;;;;5073286;28;20665;-76
2021/10/15 10:59:53;;;;;;;5.40;3.80;;;17.70;99.90;;;;;;5073818;28;20244;-76
2021/10/15 11:02:22;;;;;;;3.15;2.38;;;17.80;99.90;;;;;;5073017;28;20264;-76
2021/10/15 11:04:59;;;;;;;5.70;2.60;;;17.80;99.90;;;;;;5073609;28;20210;-76
2021/10/15 11:07:31;;;;;;;7.35;3.83;;;18.00;99.90;;;;;;5073240;28;20208;-76
2021/10/15 11:10:04;;;;;;;6.47;3.97;;;18.20;99.90;;;;;;5073865;28;20292;-76
2021/10/15 11:12:56;;;;;;;4.30;2.70;;;18.30;99.90;;;;;;5072801;28;20256;-75
2021/10/15 11:15:23;;;;;;;4.15;3.03;;;18.20;99.90;;;;;;5072963;28;20205;-75
2021/10/15 11:17:50;;;;;;;3.42;3.13;;;17.80;99.90;;;;;;5073726;28;20206;-75
2021/10/15 11:20:20;;;;;;;7.70;3.10;;;17.90;99.90;;;;;;5073267;28;20210;-76
2021/10/15 11:22:52;;;;;;;5.80;3.80;;;17.80;99.90;;;;;;5059510;28;20206;-75
2021/10/15 11:25:20;;;;;;;10.63;3.97;;;18.00;99.90;;;;;;5073166;28;20206;-70
2021/10/15 11:27:50;;;;;;;3.67;3.38;;;18.20;99.90;;;;;;5072954;28;20210;-75
2021/10/15 11:30:17;;;;;;;5.88;3.60;;;18.30;99.90;;;;;;5073072;28;20293;-75
2021/10/15 11:32:48;;;;;;;3.63;2.55;;;18.50;99.90;;;;;;5072777;28;20670;-77
2021/10/15 11:35:17;;;;;;;3.88;2.72;;;18.80;99.90;;;;;;5072770;28;20206;-76
2021/10/15 11:37:59;;;;;;;3.17;2.55;;;18.90;99.90;;;;;;5072905;28;20297;-74
2021/10/15 11:40:29;;;;;;;6.47;2.83;;;19.00;99.90;;;;;;5072389;28;20229;-75
2021/10/15 11:43:06;;;;;;;4.15;2.70;;;19.20;99.90;;;;;;5072711;28;20202;-76
2021/10/15 11:45:36;;;;;;;3.42;2.90;;;19.40;99.90;;;;;;5072707;28;20312;-76
2021/10/15 11:48:05;;;;;;;3.97;2.65;;;19.40;99.90;;;;;;5072760;28;20674;-76
2021/10/15 11:50:52;;;;;;;4.35;2.65;;;19.60;99.90;;;;;;5072245;28;20610;-71
2021/10/15 11:53:24;;;;;;;7.07;3.17;;;19.70;99.90;;;;;;5071240;28;20342;-76
2021/10/15 11:55:52;;;;;;;3.63;3.03;;;19.70;99.90;;;;;;5072656;28;20210;-76
2021/10/15 11:58:26;;;;;;;5.40;2.35;;;19.80;99.90;;;;;;5072106;28;20256;-76
2021/10/15 12:01:12;;;;;;;2.15;1.83;;;19.70;99.90;;;;;;5072593;28;20677;-76
2021/10/15 12:03:41;;;;;;;4.10;2.33;;;19.80;99.90;;;;;;5072935;28;20637;-76
2021/10/15 12:06:30;;;;;;;5.35;2.33;;;20.00;99.90;;;;;;5072911;28;20583;-75
2021/10/15 12:09:05;;;;;;;3.72;2.67;;;20.30;99.90;;;;;;5072270;28;20198;-76
2021/10/15 12:11:52;;;;;;;5.07;2.72;;;20.50;99.90;;;;;;5071336;28;20263;-77
2021/10/15 12:14:23;;;;;;;5.03;2.85;;;20.50;99.90;;;;;;5058590;28;20368;-76
2021/10/15 12:16:53;;;;;;;3.97;2.00;;;20.30;99.90;;;;;;5072619;28;20208;-76
2021/10/15 12:19:23;;;;;;;2.90;2.28;;;20.10;99.90;;;;;;5071966;28;20206;-76
2021/10/15 12:21:52;;;;;;;4.55;2.47;;;19.90;99.90;;;;;;5072257;28;20206;-76
2021/10/15 12:24:29;;;;;;;3.45;2.53;;;19.60;99.90;;;;;;5071350;28;20626;-75
2021/10/15 12:27:08;;;;;;;2.58;2.38;;;19.70;99.90;;;;;;5071975;28;20218;-74
2021/10/15 12:29:37;;;;;;;5.03;2.25;;;19.80;99.90;;;;;;5072170;28;20209;-74
2021/10/15 12:32:09;;;;;;;4.20;2.08;;;19.90;99.90;;;;;;5072464;28;20209;-76
2021/10/15 12:34:54;;;;;;;2.63;1.85;;;20.00;99.90;;;;;;5071535;28;20658;-76
2021/10/15 12:37:49;;;;;;;3.47;2.45;;;20.00;99.90;;;;;;5071686;28;20209;-75
2021/10/15 12:40:24;;;;;;;2.60;2.15;;;20.20;99.90;;;;;;5056323;28;20279;-76
2021/10/15 12:43:05;;;;;;;4.70;2.05;;;20.30;99.90;;;;;;5071812;28;20216;-74
2021/10/15 12:45:34;;;;;;;7.00;2.67;;;20.30;99.90;;;;;;5071521;28;20263;-77
2021/10/15 12:48:04;;;;;;;2.72;2.53;;;20.40;99.90;;;;;;5071532;28;20202;-78
2021/10/15 12:50:33;;;;;;;7.10;2.53;;;20.50;99.90;;;;;;5071088;28;20557;-77
2021/10/15 12:53:15;;;;;;;5.90;2.30;;;20.50;99.90;;;;;;5071423;28;20271;-76
2021/10/15 12:55:56;;;;;;;2.78;2.53;;;20.50;99.90;;;;;;5058699;28;20255;-77
2021/10/15 12:58:24;;;;;;;4.43;2.85;;;20.60;99.90;;;;;;5070988;28;20657;-76
2021/10/15 13:00:54;;;;;;;2.40;2.20;;;20.60;99.90;;;;;;5071643;28;20241;-76
2021/10/15 13:03:21;;;;;;;10.05;2.65;;;20.60;99.90;;;;;;5070474;28;20206;-71
2021/10/15 13:05:49;;;;;;;2.45;2.25;;;20.60;99.90;;;;;;5071435;28;20206;-76
2021/10/15 13:08:18;;;;;;;3.75;2.45;;;20.60;99.90;;;;;;5071002;28;20217;-76
2021/10/15 13:10:46;;;;;;;4.18;2.42;;;20.60;99.90;;;;;;5071340;28;20210;-76
2021/10/15 13:13:15;;;;;;;3.08;2.10;;;20.60;99.90;;;;;;5071026;28;20232;-75
2021/10/15 13:15:42;;;;;;;5.25;2.40;;;20.60;99.90;;;;;;5071152;28;20210;-79
2021/10/15 13:18:10;;;;;;;2.90;2.25;;;20.60;99.90;;;;;;5071302;28;20210;-71
2021/10/15 13:20:38;;;;;;;5.93;2.45;;;20.70;99.90;;;;;;5071468;28;20206;-77